createdAt,value
2019-03-11T00:02:22.781Z,100312.39
2019-03-11T00:04:51.864Z,100324.16
2019-03-11T00:07:20.934Z,100320.77
2019-03-11T00:09:50.015Z,100319.12
2019-03-11T00:12:19.075Z,100330.11
2019-03-11T00:14:48.083Z,100320.47
2019-03-11T00:17:17.144Z,100328.33
2019-03-11T00:19:46.223Z,100341.31
2019-03-11T00:22:15.293Z,100336.56
2019-03-11T00:24:44.445Z,100343.44
2019-03-11T00:27:13.435Z,100353.00
2019-03-11T00:29:42.511Z,100350.38
2019-03-11T00:32:11.575Z,100352.08
2019-03-11T00:34:40.673Z,100354.35
2019-03-11T00:37:09.737Z,100355.13
2019-03-11T00:39:38.832Z,100351.10
2019-03-11T00:42:07.813Z,100352.51
2019-03-11T00:44:36.889Z,100348.05
2019-03-11T00:47:05.944Z,100349.75
2019-03-11T00:49:35.022Z,100350.27
2019-03-11T00:52:04.092Z,100356.67
2019-03-11T00:54:33.191Z,100352.75
2019-03-11T00:57:02.230Z,100354.05
2019-03-11T00:59:31.315Z,100346.20
2019-03-11T01:02:00.395Z,100351.44
2019-03-11T01:04:29.485Z,100343.25
2019-03-11T01:06:58.548Z,100347.95
2019-03-11T01:09:27.620Z,100342.37
2019-03-11T01:11:56.678Z,100334.57
2019-03-11T01:14:25.689Z,100337.25
2019-03-11T01:16:54.760Z,100329.83
2019-03-11T01:19:23.843Z,100333.76
2019-03-11T01:21:52.826Z,100337.25
2019-03-11T01:24:21.905Z,100338.16
2019-03-11T01:26:50.962Z,100332.55
2019-03-11T01:29:20.046Z,100332.50
2019-03-11T01:31:49.103Z,100332.55
2019-03-11T01:34:18.192Z,100333.90
2019-03-11T01:36:47.247Z,100326.92
2019-03-11T01:39:16.339Z,100321.39
2019-03-11T01:41:45.320Z,100320.18
2019-03-11T01:44:14.402Z,100323.81
2019-03-11T01:46:43.473Z,100316.45
2019-03-11T01:49:12.499Z,100318.77
2019-03-11T01:51:41.478Z,100317.55
2019-03-11T01:54:10.570Z,100320.65
2019-03-11T01:56:39.628Z,100319.47
2019-03-11T01:59:08.719Z,100305.17
2019-03-11T02:01:37.816Z,100303.03
2019-03-11T02:04:06.914Z,100311.80
2019-03-11T02:06:35.962Z,100318.83
2019-03-11T02:09:05.503Z,100307.97
2019-03-11T02:11:34.564Z,100312.33
2019-03-11T02:14:03.756Z,100307.53
2019-03-11T02:16:32.817Z,100315.44
2019-03-11T02:19:02.001Z,100314.56
2019-03-11T02:21:31.069Z,100311.07
2019-03-11T02:24:00.165Z,100314.08
2019-03-11T02:26:29.233Z,100318.02
2019-03-11T02:28:58.310Z,100309.27
2019-03-11T02:31:27.378Z,100303.61
2019-03-11T02:33:56.471Z,100303.99
2019-03-11T02:36:25.710Z,100295.62
2019-03-11T02:38:54.794Z,100304.83
2019-03-11T02:41:23.861Z,100318.27
2019-03-11T02:43:52.945Z,100304.30
2019-03-11T02:46:21.921Z,100302.98
2019-03-11T02:48:50.937Z,100308.56
2019-03-11T02:51:20.009Z,100305.81
2019-03-11T02:53:49.097Z,100307.12
2019-03-11T02:56:18.171Z,100306.63
2019-03-11T02:58:47.228Z,100306.55
2019-03-11T03:01:53.998Z,100297.30
2019-03-11T03:04:27.203Z,100292.05
2019-03-11T03:06:56.257Z,100289.30
2019-03-11T03:09:25.367Z,100284.98
2019-03-11T03:11:54.444Z,100285.77
2019-03-11T03:14:23.511Z,100281.39
2019-03-11T03:16:52.573Z,100285.27
2019-03-11T03:19:21.677Z,100283.10
2019-03-11T03:21:50.736Z,100282.18
2019-03-11T03:24:19.832Z,100284.75
2019-03-11T03:26:48.899Z,100291.73
2019-03-11T03:29:17.993Z,100285.58
2019-03-11T03:31:47.061Z,100275.06
2019-03-11T03:34:16.146Z,100278.08
2019-03-11T03:36:45.160Z,100280.69
2019-03-11T03:39:14.249Z,100279.03
2019-03-11T03:41:43.315Z,100276.75
2019-03-11T03:44:12.416Z,100283.73
2019-03-11T03:46:41.548Z,100281.60
2019-03-11T03:49:10.620Z,100274.97
2019-03-11T03:51:39.711Z,100271.47
2019-03-11T03:54:08.776Z,100276.23
2019-03-11T03:56:37.876Z,100267.90
2019-03-11T03:59:06.955Z,100275.30
2019-03-11T04:01:36.124Z,100278.27
2019-03-11T04:04:05.223Z,100276.00
2019-03-11T04:06:34.306Z,100274.16
2019-03-11T04:09:03.566Z,100268.78
2019-03-11T04:11:32.656Z,100276.19
2019-03-11T04:14:01.748Z,100280.84
2019-03-11T04:16:30.839Z,100275.95
2019-03-11T04:18:59.911Z,100279.72
2019-03-11T04:21:29.016Z,100282.69
2019-03-11T04:23:58.091Z,100281.31
2019-03-11T04:26:31.228Z,100279.95
2019-03-11T04:29:00.316Z,100275.66
2019-03-11T04:31:29.436Z,100276.14
2019-03-11T04:33:58.517Z,100275.36
2019-03-11T04:36:27.606Z,100280.21
2019-03-11T04:38:56.673Z,100274.98
2019-03-11T04:41:25.771Z,100275.03
2019-03-11T04:43:54.847Z,100270.13
2019-03-11T04:46:23.934Z,100276.62
2019-03-11T04:48:53.000Z,100281.03
2019-03-11T04:51:22.090Z,100277.88
2019-03-11T04:53:51.163Z,100273.86
2019-03-11T04:56:20.258Z,100279.95
2019-03-11T04:58:49.267Z,100282.52
2019-03-11T05:01:18.363Z,100285.09
2019-03-11T05:03:47.455Z,100284.80
2019-03-11T05:06:16.488Z,100281.76
2019-03-11T05:08:45.556Z,100283.21
2019-03-11T05:11:14.642Z,100272.31
2019-03-11T05:13:43.700Z,100267.66
2019-03-11T05:16:12.803Z,100266.45
2019-03-11T05:18:41.863Z,100256.04
2019-03-11T05:21:10.947Z,100255.70
2019-03-11T05:23:40.018Z,100261.84
2019-03-11T05:26:09.110Z,100263.59
2019-03-11T05:28:38.179Z,100270.61
2019-03-11T05:31:07.263Z,100266.26
2019-03-11T05:33:36.335Z,100267.13
2019-03-11T05:36:05.412Z,100268.43
2019-03-11T05:38:34.490Z,100260.59
2019-03-11T05:41:03.579Z,100266.35
2019-03-11T05:43:32.576Z,100272.89
2019-03-11T05:46:01.655Z,100271.06
2019-03-11T05:48:30.642Z,100273.38
2019-03-11T05:50:59.730Z,100267.56
2019-03-11T05:53:28.726Z,100274.20
2019-03-11T05:56:00.801Z,100272.37
2019-03-11T05:58:29.900Z,100277.25
2019-03-11T06:00:58.984Z,100282.05
2019-03-11T06:03:28.067Z,100283.45
2019-03-11T06:05:58.827Z,100282.92
2019-03-11T06:08:28.212Z,100284.19
2019-03-11T06:10:57.299Z,100289.38
2019-03-11T06:13:35.600Z,100295.08
2019-03-11T06:15:58.362Z,100287.28
2019-03-11T06:18:45.228Z,100291.25
2019-03-11T06:21:33.267Z,100295.08
2019-03-11T06:24:02.331Z,100310.64
2019-03-11T06:26:31.411Z,100301.44
2019-03-11T06:29:00.467Z,100299.78
2019-03-11T06:31:29.544Z,100297.95
2019-03-11T06:33:58.536Z,100301.73
2019-03-11T06:36:27.619Z,100297.36
2019-03-11T06:39:05.213Z,100300.31
2019-03-11T06:41:27.496Z,100296.29
2019-03-11T06:43:56.546Z,100290.95
2019-03-11T06:46:25.617Z,100290.23
2019-03-11T06:48:54.679Z,100287.13
2019-03-11T06:51:23.927Z,100285.78
2019-03-11T06:53:52.966Z,100294.45
2019-03-11T06:56:22.048Z,100293.95
2019-03-11T06:58:51.131Z,100302.73
2019-03-11T07:01:20.227Z,100299.78
2019-03-11T07:03:49.245Z,100311.27
2019-03-11T07:06:18.295Z,100309.23
2019-03-11T07:08:47.310Z,100305.08
2019-03-11T07:11:16.385Z,100304.92
2019-03-11T07:13:45.448Z,100304.14
2019-03-11T07:16:14.525Z,100303.80
2019-03-11T07:18:43.586Z,100295.61
2019-03-11T07:21:12.670Z,100301.37
2019-03-11T07:23:41.727Z,100295.36
2019-03-11T07:26:10.806Z,100309.46
2019-03-11T07:28:39.868Z,100304.80
2019-03-11T07:31:08.956Z,100312.11
2019-03-11T07:33:37.953Z,100305.13
2019-03-11T07:36:07.239Z,100318.70
2019-03-11T07:38:36.301Z,100316.56
2019-03-11T07:41:05.382Z,100320.09
2019-03-11T07:43:34.556Z,100327.09
2019-03-11T07:46:03.620Z,100322.37
2019-03-11T07:48:32.633Z,100326.00
2019-03-11T07:51:01.712Z,100330.45
2019-03-11T07:53:30.809Z,100345.43
2019-03-11T07:55:59.819Z,100328.10
2019-03-11T07:58:28.750Z,100338.37
2019-03-11T08:00:57.834Z,100340.28
2019-03-11T08:03:26.919Z,100344.74
2019-03-11T08:05:55.995Z,100335.30
2019-03-11T08:08:25.073Z,100338.49
2019-03-11T08:10:54.149Z,100332.50
2019-03-11T08:13:23.227Z,100332.23
2019-03-11T08:15:52.289Z,100333.22
2019-03-11T08:18:21.296Z,100336.48
2019-03-11T08:20:50.359Z,100338.48
2019-03-11T08:23:19.459Z,100336.89
2019-03-11T08:25:48.516Z,100337.48
2019-03-11T08:28:17.598Z,100324.92
2019-03-11T08:30:46.979Z,100338.31
2019-03-11T08:33:16.054Z,100345.41
2019-03-11T08:35:45.126Z,100342.03
2019-03-11T08:38:14.147Z,100344.73
2019-03-11T08:40:43.214Z,100357.41
2019-03-11T08:43:12.279Z,100351.77
2019-03-11T08:45:41.273Z,100346.08
2019-03-11T08:48:10.376Z,100348.30
2019-03-11T08:50:39.365Z,100350.20
2019-03-11T08:53:08.450Z,100356.03
2019-03-11T08:55:37.515Z,100364.42
2019-03-11T08:58:06.590Z,100357.42
2019-03-11T09:00:35.663Z,100347.02
2019-03-11T09:03:04.760Z,100362.41
2019-03-11T09:05:33.815Z,100354.20
2019-03-11T09:08:02.894Z,100352.52
2019-03-11T09:10:31.961Z,100351.78
2019-03-11T09:13:00.992Z,100354.14
2019-03-11T09:15:30.066Z,100349.50
2019-03-11T09:17:59.172Z,100349.66
2019-03-11T09:20:28.225Z,100344.12
2019-03-11T09:22:57.237Z,100365.75
2019-03-11T09:25:26.339Z,100346.91
2019-03-11T09:27:55.406Z,100365.84
2019-03-11T09:30:24.774Z,100360.21
2019-03-11T09:32:53.870Z,100361.64
2019-03-11T09:35:22.953Z,100359.95
2019-03-11T09:37:52.036Z,100360.11
2019-03-11T09:40:21.108Z,100375.88
2019-03-11T09:42:50.290Z,100380.67
2019-03-11T09:45:19.559Z,100367.97
2019-03-11T09:47:48.660Z,100369.72
2019-03-11T09:50:18.172Z,100370.13
2019-03-11T09:52:47.264Z,100373.97
2019-03-11T09:55:16.337Z,100367.78
2019-03-11T09:57:45.431Z,100369.03
2019-03-11T10:00:16.925Z,100374.69
2019-03-11T10:02:52.350Z,100379.45
2019-03-11T10:05:16.813Z,100382.45
2019-03-11T10:07:45.928Z,100383.64
2019-03-11T10:10:15.873Z,100385.80
2019-03-11T10:12:44.889Z,100387.86
2019-03-11T10:15:14.837Z,100397.92
2019-03-11T10:17:43.948Z,100397.39
2019-03-11T10:20:13.675Z,100399.91
2019-03-11T10:22:42.979Z,100409.55
2019-03-11T10:25:12.364Z,100408.09
2019-03-11T10:27:41.509Z,100399.34
2019-03-11T10:30:12.413Z,100405.91
2019-03-11T10:32:41.509Z,100410.21
2019-03-11T10:35:30.267Z,100408.53
2019-03-11T10:37:42.847Z,100415.06
2019-03-11T10:40:14.331Z,100408.12
2019-03-11T10:42:43.427Z,100408.60
2019-03-11T10:45:12.865Z,100406.91
2019-03-11T10:47:41.974Z,100405.23
2019-03-11T10:50:11.512Z,100410.92
2019-03-11T10:52:40.594Z,100415.38
2019-03-11T10:55:11.150Z,100416.39
2019-03-11T10:57:40.210Z,100411.13
2019-03-11T11:00:12.915Z,100413.79
2019-03-11T11:02:42.047Z,100412.91
2019-03-11T11:05:11.234Z,100412.98
2019-03-11T11:07:40.299Z,100414.77
2019-03-11T11:10:09.705Z,100432.39
2019-03-11T11:12:38.783Z,100423.25
2019-03-11T11:15:16.128Z,100434.20
2019-03-11T11:17:45.491Z,100436.02
2019-03-11T11:20:15.165Z,100430.80
2019-03-11T11:22:44.242Z,100434.34
2019-03-11T11:25:15.470Z,100432.18
2019-03-11T11:27:44.536Z,100439.97
2019-03-11T11:30:16.453Z,100450.08
2019-03-11T11:32:45.517Z,100451.86
2019-03-11T11:35:16.063Z,100452.37
2019-03-11T11:37:45.534Z,100448.55
2019-03-11T11:40:16.710Z,100442.08
2019-03-11T11:42:45.768Z,100454.03
2019-03-11T11:45:16.735Z,100451.81
2019-03-11T11:47:45.802Z,100468.37
2019-03-11T11:50:16.685Z,100459.63
2019-03-11T11:52:45.854Z,100459.27
2019-03-11T11:55:15.156Z,100454.13
2019-03-11T11:57:44.231Z,100460.83
2019-03-11T12:00:19.637Z,100455.22
2019-03-11T12:02:48.726Z,100455.81
2019-03-11T12:05:18.260Z,100466.02
2019-03-11T12:07:47.339Z,100464.82
2019-03-11T12:10:17.522Z,100458.73
2019-03-11T12:12:46.608Z,100461.43
2019-03-11T12:15:15.690Z,100458.80
2019-03-11T12:17:44.754Z,100469.00
2019-03-11T12:20:16.543Z,100482.07
2019-03-11T12:22:45.673Z,100475.46
2019-03-11T12:25:16.192Z,100479.03
2019-03-11T12:27:53.734Z,100482.62
2019-03-11T12:30:20.938Z,100484.00
2019-03-11T12:32:50.025Z,100480.11
2019-03-11T12:35:19.646Z,100488.47
2019-03-11T12:37:48.726Z,100488.85
2019-03-11T12:40:17.952Z,100490.61
2019-03-11T12:42:47.119Z,100492.42
2019-03-11T12:45:16.260Z,100495.90
2019-03-11T12:47:45.325Z,100493.27
2019-03-11T12:50:16.163Z,100498.06
2019-03-11T12:52:45.225Z,100495.52
2019-03-11T12:55:14.315Z,100508.81
2019-03-11T12:57:43.392Z,100510.98
2019-03-11T13:00:14.816Z,100507.94
2019-03-11T13:02:43.897Z,100510.49
2019-03-11T13:05:13.404Z,100516.14
2019-03-11T13:07:42.477Z,100518.73
2019-03-11T13:10:13.963Z,100526.92
2019-03-11T13:12:43.024Z,100531.63
2019-03-11T13:15:12.620Z,100532.03
2019-03-11T13:17:41.717Z,100536.08
2019-03-11T13:20:14.219Z,100548.54
2019-03-11T13:22:43.286Z,100531.52
2019-03-11T13:25:12.391Z,100539.91
2019-03-11T13:27:41.387Z,100537.80
2019-03-11T13:30:11.752Z,100535.86
2019-03-11T13:32:40.816Z,100546.52
2019-03-11T13:35:09.893Z,100538.80
2019-03-11T13:37:38.987Z,100536.34
2019-03-11T13:40:08.332Z,100543.67
2019-03-11T13:42:37.419Z,100541.26
2019-03-11T13:45:06.659Z,100542.42
2019-03-11T13:47:35.751Z,100542.22
2019-03-11T13:50:06.413Z,100536.30
2019-03-11T13:52:35.518Z,100549.11
2019-03-11T13:55:10.058Z,100562.23
2019-03-11T13:57:36.049Z,100552.06
2019-03-11T14:00:05.580Z,100550.77
2019-03-11T14:02:34.695Z,100554.36
2019-03-11T14:05:03.783Z,100562.00
2019-03-11T14:07:32.875Z,100558.55
2019-03-11T14:10:01.954Z,100564.80
2019-03-11T14:12:31.061Z,100555.09
2019-03-11T14:15:00.353Z,100561.20
2019-03-11T14:17:29.420Z,100566.85
2019-03-11T14:19:58.494Z,100569.95
2019-03-11T14:22:27.603Z,100568.52
2019-03-11T14:24:56.677Z,100572.81
2019-03-11T14:27:25.770Z,100566.05
2019-03-11T14:29:54.843Z,100566.95
2019-03-11T14:32:23.929Z,100575.19
2019-03-11T14:34:52.908Z,100573.40
2019-03-11T14:37:21.935Z,100589.09
2019-03-11T14:39:51.010Z,100581.16
2019-03-11T14:42:20.109Z,100583.75
2019-03-11T14:44:49.195Z,100577.46
2019-03-11T14:47:18.294Z,100582.21
2019-03-11T14:49:47.354Z,100584.21
2019-03-11T14:52:16.455Z,100595.58
2019-03-11T14:54:45.545Z,100597.70
2019-03-11T14:57:14.637Z,100589.20
2019-03-11T14:59:44.355Z,100586.10
2019-03-11T15:02:13.588Z,100590.52
2019-03-11T15:04:42.698Z,100595.30
2019-03-11T15:07:11.802Z,100597.33
2019-03-11T15:09:51.048Z,100592.44
2019-03-11T15:12:11.619Z,100595.46
2019-03-11T15:14:40.693Z,100602.61
2019-03-11T15:17:09.797Z,100599.80
2019-03-11T15:19:38.866Z,100601.84
2019-03-11T15:22:07.963Z,100609.17
2019-03-11T15:24:37.027Z,100618.23
2019-03-11T15:27:06.105Z,100625.48
2019-03-11T15:29:35.181Z,100628.69
2019-03-11T15:32:04.279Z,100621.47
2019-03-11T15:34:33.354Z,100629.08
2019-03-11T15:37:02.438Z,100636.13
2019-03-11T15:39:31.492Z,100631.33
2019-03-11T15:42:01.433Z,100634.08
2019-03-11T15:44:30.502Z,100636.47
2019-03-11T15:46:59.674Z,100631.84
2019-03-11T15:49:28.712Z,100628.22
2019-03-11T15:51:57.722Z,100623.64
2019-03-11T15:54:26.712Z,100632.10
2019-03-11T15:56:55.863Z,100629.78
2019-03-11T15:59:24.966Z,100636.66
2019-03-11T16:01:54.028Z,100641.34
2019-03-11T16:04:23.132Z,100632.45
2019-03-11T16:06:52.220Z,100639.33
2019-03-11T16:09:21.198Z,100633.11
2019-03-11T16:11:50.268Z,100631.27
2019-03-11T16:14:19.343Z,100631.66
2019-03-11T16:16:48.431Z,100632.98
2019-03-11T16:19:17.569Z,100628.59
2019-03-11T16:21:46.563Z,100627.24
2019-03-11T16:24:15.658Z,100626.31
2019-03-11T16:26:44.716Z,100635.56
2019-03-11T16:29:13.799Z,100632.98
2019-03-11T16:31:42.859Z,100632.59
2019-03-11T16:34:11.943Z,100637.88
2019-03-11T16:36:41.023Z,100643.65
2019-03-11T16:39:10.118Z,100644.57
2019-03-11T16:41:39.241Z,100643.73
2019-03-11T16:44:08.333Z,100650.34
2019-03-11T16:46:37.413Z,100648.16
2019-03-11T16:49:06.495Z,100653.84
2019-03-11T16:51:35.554Z,100646.36
2019-03-11T16:54:04.651Z,100652.45
2019-03-11T16:56:36.971Z,100651.61
2019-03-11T16:59:06.145Z,100655.60
2019-03-11T17:01:35.129Z,100657.48
2019-03-11T17:04:04.256Z,100657.00
2019-03-11T17:06:33.317Z,100661.86
2019-03-11T17:09:02.327Z,100661.47
2019-03-11T17:11:31.315Z,100671.14
2019-03-11T17:14:00.402Z,100672.05
2019-03-11T17:16:29.543Z,100685.63
2019-03-11T17:18:58.623Z,100685.58
2019-03-11T17:21:27.686Z,100685.49
2019-03-11T17:23:56.704Z,100694.28
2019-03-11T17:26:25.767Z,100700.80
2019-03-11T17:28:54.895Z,100715.88
2019-03-11T17:31:23.959Z,100716.04
2019-03-11T17:33:53.049Z,100724.69
2019-03-11T17:36:22.117Z,100726.35
2019-03-11T17:38:51.198Z,100735.52
2019-03-11T17:41:20.249Z,100736.40
2019-03-11T17:43:49.353Z,100735.52
2019-03-11T17:46:18.327Z,100738.84
2019-03-11T17:48:47.392Z,100738.74
2019-03-11T17:51:16.455Z,100736.98
2019-03-11T17:53:45.456Z,100748.27
2019-03-11T17:56:14.596Z,100746.50
2019-03-11T17:58:43.700Z,100745.09
2019-03-11T18:01:12.868Z,100759.52
2019-03-11T18:03:42.019Z,100762.48
2019-03-11T18:06:12.168Z,100772.45
2019-03-11T18:08:41.234Z,100771.52
2019-03-11T18:11:10.302Z,100776.37
2019-03-11T18:13:39.375Z,100786.88
2019-03-11T18:16:08.516Z,100779.00
2019-03-11T18:18:37.604Z,100785.16
2019-03-11T18:21:07.005Z,100789.16
2019-03-11T18:23:35.995Z,100803.25
2019-03-11T18:26:05.047Z,100806.80
2019-03-11T18:28:34.129Z,100818.66
2019-03-11T18:31:03.197Z,100824.40
2019-03-11T18:33:32.273Z,100820.52
2019-03-11T18:36:01.334Z,100823.56
2019-03-11T18:38:30.420Z,100822.26
2019-03-11T18:40:59.564Z,100826.63
2019-03-11T18:43:28.744Z,100833.63
2019-03-11T18:46:00.229Z,100834.11
2019-03-11T18:48:28.678Z,100840.73
2019-03-11T18:50:57.776Z,100841.13
2019-03-11T18:53:26.889Z,100840.24
2019-03-11T18:55:55.985Z,100838.93
2019-03-11T18:58:25.043Z,100838.93
2019-03-11T19:00:54.144Z,100849.48
2019-03-11T19:03:23.162Z,100858.23
2019-03-11T19:05:52.211Z,100860.85
2019-03-11T19:08:21.365Z,100868.78
2019-03-11T19:10:50.480Z,100881.46
2019-03-11T19:13:19.517Z,100880.14
2019-03-11T19:15:48.545Z,100886.27
2019-03-11T19:18:17.682Z,100885.33
2019-03-11T19:20:46.730Z,100895.83
2019-03-11T19:23:15.790Z,100897.53
2019-03-11T19:25:44.890Z,100912.88
2019-03-11T19:28:14.241Z,100904.96
2019-03-11T19:30:43.313Z,100911.52
2019-03-11T19:33:12.458Z,100913.72
2019-03-11T19:35:41.639Z,100924.16
2019-03-11T19:38:10.769Z,100925.95
2019-03-11T19:40:39.916Z,100931.65
2019-03-11T19:43:09.045Z,100936.45
2019-03-11T19:45:38.126Z,100943.52
2019-03-11T19:48:07.120Z,100940.01
2019-03-11T19:50:36.194Z,100954.01
2019-03-11T19:53:05.289Z,100953.13
2019-03-11T19:55:34.350Z,100957.44
2019-03-11T19:58:03.400Z,100958.70
2019-03-11T20:00:32.543Z,100967.88
2019-03-11T20:03:01.682Z,100970.51
2019-03-11T20:05:30.757Z,100982.31
2019-03-11T20:07:59.909Z,100987.99
2019-03-11T20:10:28.981Z,100990.19
2019-03-11T20:12:58.052Z,100991.02
2019-03-11T20:15:27.165Z,100994.89
2019-03-11T20:17:56.213Z,101002.37
2019-03-11T20:20:25.261Z,101018.62
2019-03-11T20:22:54.371Z,101015.00
2019-03-11T20:25:25.359Z,101017.63
2019-03-11T20:27:54.399Z,101010.59
2019-03-11T20:30:24.145Z,101022.88
2019-03-11T20:32:53.259Z,101027.30
2019-03-11T20:35:22.383Z,101025.98
2019-03-11T20:37:51.501Z,101032.17
2019-03-11T20:40:20.688Z,101029.55
2019-03-11T20:42:49.738Z,101042.67
2019-03-11T20:45:18.922Z,101054.05
2019-03-11T20:47:47.987Z,101064.97
2019-03-11T20:50:17.228Z,101070.59
2019-03-11T20:52:46.304Z,101075.84
2019-03-11T20:55:15.487Z,101083.59
2019-03-11T20:57:44.624Z,101097.09
2019-03-11T21:00:18.821Z,101105.30
2019-03-11T21:02:48.017Z,101116.66
2019-03-11T21:05:18.304Z,101123.16
2019-03-11T21:07:47.369Z,101128.77
2019-03-11T21:10:16.720Z,101125.61
2019-03-11T21:12:45.860Z,101129.86
2019-03-11T21:15:15.076Z,101136.23
2019-03-11T21:17:44.138Z,101135.17
2019-03-11T21:20:14.250Z,101147.29
2019-03-11T21:22:43.485Z,101164.64
2019-03-11T21:25:14.250Z,101166.81
2019-03-11T21:27:43.310Z,101175.87
2019-03-11T21:30:14.852Z,101182.79
2019-03-11T21:32:43.886Z,101184.04
2019-03-11T21:35:13.317Z,101190.48
2019-03-11T21:37:42.413Z,101197.45
2019-03-11T21:40:13.219Z,101198.28
2019-03-11T21:42:42.285Z,101205.27
2019-03-11T21:45:12.276Z,101208.22
2019-03-11T21:47:41.323Z,101217.82
2019-03-11T21:50:14.416Z,101222.55
2019-03-11T21:52:43.487Z,101229.09
2019-03-11T21:55:12.615Z,101237.79
2019-03-11T21:57:41.726Z,101241.72
2019-03-11T22:00:13.560Z,101244.34
2019-03-11T22:02:42.569Z,101245.72
2019-03-11T22:05:11.700Z,101258.46
2019-03-11T22:07:40.724Z,101269.80
2019-03-11T22:10:10.591Z,101273.83
2019-03-11T22:12:39.646Z,101275.94
2019-03-11T22:15:09.816Z,101286.36
2019-03-11T22:17:38.877Z,101284.68
2019-03-11T22:20:09.229Z,101282.42
2019-03-11T22:22:38.287Z,101289.86
2019-03-11T22:25:07.920Z,101291.17
2019-03-11T22:27:36.992Z,101292.48
2019-03-11T22:30:07.134Z,101302.16
2019-03-11T22:32:36.216Z,101307.85
2019-03-11T22:35:12.665Z,101314.38
2019-03-11T22:37:36.424Z,101316.08
2019-03-11T22:40:06.359Z,101321.69
2019-03-11T22:42:35.348Z,101328.30
2019-03-11T22:45:04.884Z,101330.11
2019-03-11T22:47:33.962Z,101325.26
2019-03-11T22:50:03.024Z,101334.05
2019-03-11T22:52:32.116Z,101346.72
2019-03-11T22:55:01.176Z,101349.22
2019-03-11T22:57:30.251Z,101341.35
2019-03-11T22:59:59.305Z,101347.41
2019-03-11T23:02:28.485Z,101346.53
2019-03-11T23:04:57.570Z,101342.59
2019-03-11T23:07:26.645Z,101351.31
2019-03-11T23:09:55.718Z,101344.33
2019-03-11T23:12:24.803Z,101351.70
2019-03-11T23:14:53.868Z,101347.77
2019-03-11T23:17:22.869Z,101362.63
2019-03-11T23:19:51.998Z,101360.42
2019-03-11T23:22:21.094Z,101354.33
2019-03-11T23:24:50.150Z,101350.89
2019-03-11T23:27:19.226Z,101349.58
2019-03-11T23:29:48.284Z,101364.06
2019-03-11T23:32:17.367Z,101365.37
2019-03-11T23:34:46.434Z,101358.81
2019-03-11T23:37:15.522Z,101369.37
2019-03-11T23:39:44.433Z,101376.75
2019-03-11T23:42:13.517Z,101384.25
2019-03-11T23:44:42.578Z,101380.31
2019-03-11T23:47:11.676Z,101380.75
2019-03-11T23:49:40.736Z,101388.68
2019-03-11T23:52:09.819Z,101395.23
2019-03-11T23:54:38.805Z,101390.34
2019-03-11T23:57:07.908Z,101392.55
2019-03-11T23:59:36.968Z,101393.36
